Sycamore, Pennsylvania
Current Conditions -  °F | °C
As of 9:35 PM on Saturday 22 Nov 2014 (Local Time) from KAFJ Reporting Station
Overcast Overcast  
Wind Chill: 44°   Ceiling: 10000
Heat Index: 46°   Visibility: 10mi
Dew Point: 28°   Wind: 6mph
Humidity: 50%   Direction: 200°SSW
Pressure: 30.13"   Gusts: NA
Location:  39.93°N, 80.24°W
Report Text: KAFJ 230235Z 20005KT 10SM OVC100 08/M02 A3013 RMK AO1
Loading
Personal Weather Stations






























Interactive Weather Map New forecast layout! Learn more

10-Day Weather Forecast

Advertisements
Track Severe Weather on mobile